createdAt,value
2018-07-12T00:01:21.243Z,55.00
2018-07-12T00:03:48.547Z,55.10
2018-07-12T00:06:15.852Z,55.20
2018-07-12T00:08:43.176Z,55.20
2018-07-12T00:11:10.474Z,55.20
2018-07-12T00:13:37.814Z,55.30
2018-07-12T00:16:05.119Z,55.30
2018-07-12T00:18:32.421Z,55.20
2018-07-12T00:20:59.741Z,55.30
2018-07-12T00:23:27.046Z,55.20
2018-07-12T00:25:54.664Z,55.40
2018-07-12T00:28:21.968Z,55.10
2018-07-12T00:30:49.312Z,55.20
2018-07-12T00:33:16.647Z,55.20
2018-07-12T00:35:43.962Z,55.70
2018-07-12T00:38:11.302Z,54.90
2018-07-12T00:40:38.637Z,55.30
2018-07-12T00:43:05.974Z,55.00
2018-07-12T00:45:33.283Z,55.10
2018-07-12T00:48:00.630Z,55.00
2018-07-12T00:50:27.939Z,55.20
2018-07-12T00:52:55.279Z,55.10
2018-07-12T00:55:22.618Z,55.20
2018-07-12T00:57:49.952Z,55.50
2018-07-12T01:00:17.238Z,55.70
2018-07-12T01:02:44.576Z,55.80
2018-07-12T01:05:11.892Z,55.50
2018-07-12T01:07:39.186Z,55.70
2018-07-12T01:10:06.544Z,55.20
2018-07-12T01:12:33.898Z,55.50
2018-07-12T01:15:01.226Z,55.60
2018-07-12T01:17:28.543Z,55.80
2018-07-12T01:19:55.898Z,55.80
2018-07-12T01:22:23.183Z,55.70
2018-07-12T01:24:50.495Z,55.60
2018-07-12T01:27:17.790Z,55.70
2018-07-12T01:29:45.095Z,55.70
2018-07-12T01:32:12.409Z,55.70
2018-07-12T01:34:39.721Z,55.70
2018-07-12T01:37:07.147Z,55.80
2018-07-12T01:39:34.563Z,55.70
2018-07-12T01:42:01.887Z,55.70
2018-07-12T01:44:29.164Z,55.80
2018-07-12T01:46:56.485Z,55.80
2018-07-12T01:49:23.783Z,55.80
2018-07-12T01:51:51.100Z,55.90
2018-07-12T01:54:18.396Z,55.90
2018-07-12T01:56:45.714Z,55.80
2018-07-12T01:59:13.038Z,55.80
2018-07-12T02:01:40.355Z,55.80
2018-07-12T02:04:07.675Z,55.80
2018-07-12T02:09:02.927Z,55.60
2018-07-12T02:11:30.266Z,55.80
2018-07-12T02:13:57.568Z,55.80
2018-07-12T02:16:24.865Z,55.80
2018-07-12T02:18:52.173Z,55.80
2018-07-12T02:21:19.471Z,55.70
2018-07-12T02:23:46.787Z,55.80
2018-07-12T02:26:14.095Z,55.70
2018-07-12T02:28:41.412Z,55.80
2018-07-12T02:31:08.719Z,55.70
2018-07-12T02:33:36.014Z,55.70
2018-07-12T02:36:03.748Z,55.60
2018-07-12T02:38:31.031Z,54.70
2018-07-12T02:40:58.348Z,55.70
2018-07-12T02:43:25.663Z,55.70
2018-07-12T02:48:20.590Z,55.80
2018-07-12T02:53:15.465Z,55.80
2018-07-12T02:55:42.774Z,55.80
2018-07-12T02:58:10.080Z,55.80
2018-07-12T03:00:37.406Z,55.90
2018-07-12T03:03:04.723Z,55.80
2018-07-12T03:05:32.283Z,55.90
2018-07-12T03:07:59.586Z,55.60
2018-07-12T03:10:26.877Z,55.80
2018-07-12T03:12:54.212Z,55.90
2018-07-12T03:15:21.510Z,55.80
2018-07-12T03:17:48.877Z,55.70
2018-07-12T03:20:16.210Z,55.80
2018-07-12T03:22:43.488Z,55.70
2018-07-12T03:25:13.423Z,55.80
2018-07-12T03:27:43.868Z,55.90
2018-07-12T03:30:11.158Z,55.90
2018-07-12T03:32:38.464Z,55.80
2018-07-12T03:37:33.344Z,55.80
2018-07-12T03:40:00.654Z,55.90
2018-07-12T03:42:27.955Z,55.70
2018-07-12T03:44:55.250Z,55.80
2018-07-12T03:47:22.576Z,55.80
2018-07-12T03:49:49.880Z,55.80
2018-07-12T03:52:17.372Z,55.70
2018-07-12T03:54:44.659Z,55.70
2018-07-12T03:57:11.988Z,55.80
2018-07-12T03:59:39.279Z,55.80
2018-07-12T04:02:06.578Z,55.70
2018-07-12T04:04:33.909Z,55.80
2018-07-12T04:07:01.244Z,55.70
2018-07-12T04:09:28.781Z,55.70
2018-07-12T04:11:56.097Z,55.70
2018-07-12T04:14:23.407Z,55.70
2018-07-12T04:16:50.711Z,55.70
2018-07-12T04:19:17.995Z,55.70
2018-07-12T04:21:45.321Z,55.70
2018-07-12T04:24:12.631Z,55.80
2018-07-12T04:26:39.940Z,55.60
2018-07-12T04:29:07.246Z,55.70
2018-07-12T04:31:34.550Z,56.40
2018-07-12T04:34:01.890Z,55.80
2018-07-12T04:36:29.206Z,55.70
2018-07-12T04:38:56.530Z,55.70
2018-07-12T04:43:51.427Z,55.80
2018-07-12T04:46:18.729Z,55.70
2018-07-12T04:48:46.027Z,55.30
2018-07-12T04:51:13.359Z,55.70
2018-07-12T04:53:40.639Z,55.60
2018-07-12T04:56:07.935Z,55.60
2018-07-12T04:58:35.356Z,55.70
2018-07-12T05:03:30.252Z,55.70
2018-07-12T05:05:57.559Z,55.60
2018-07-12T05:08:24.887Z,55.70
2018-07-12T05:10:52.172Z,55.60
2018-07-12T05:13:19.556Z,55.80
2018-07-12T05:15:46.824Z,55.80
2018-07-12T05:18:14.145Z,55.70
2018-07-12T05:20:41.460Z,55.60
2018-07-12T05:23:08.756Z,55.70
2018-07-12T05:25:36.044Z,55.70
2018-07-12T05:28:03.339Z,55.70
2018-07-12T05:30:30.613Z,55.70
2018-07-12T05:32:58.394Z,55.60
2018-07-12T05:35:26.746Z,55.50
2018-07-12T05:37:55.055Z,55.50
2018-07-12T05:40:23.400Z,55.60
2018-07-12T05:42:51.782Z,55.60
2018-07-12T05:45:20.087Z,55.60
2018-07-12T05:47:48.419Z,55.60
2018-07-12T05:50:16.936Z,55.40
2018-07-12T05:52:45.251Z,55.30
2018-07-12T05:55:13.570Z,55.50
2018-07-12T05:57:41.898Z,55.60
2018-07-12T06:02:38.330Z,55.40
2018-07-12T06:05:06.686Z,55.40
2018-07-12T06:07:34.979Z,55.40
2018-07-12T06:10:03.296Z,55.30
2018-07-12T06:12:31.566Z,55.40
2018-07-12T06:14:59.946Z,55.40
2018-07-12T06:17:28.291Z,55.40
2018-07-12T06:19:56.623Z,55.40
2018-07-12T06:22:24.966Z,55.30
2018-07-12T06:24:53.262Z,55.40
2018-07-12T06:27:21.691Z,55.70
2018-07-12T06:29:50.016Z,55.20
2018-07-12T06:32:18.342Z,55.30
2018-07-12T06:34:46.660Z,55.30
2018-07-12T06:37:14.999Z,55.40
2018-07-12T06:39:43.332Z,55.40
2018-07-12T06:42:11.653Z,55.40
2018-07-12T06:44:39.964Z,55.20
2018-07-12T06:47:08.361Z,55.10
2018-07-12T06:49:36.696Z,55.20
2018-07-12T06:52:04.996Z,55.30
2018-07-12T06:54:33.403Z,55.30
2018-07-12T06:57:01.741Z,55.10
2018-07-12T06:59:30.119Z,55.40
2018-07-12T07:01:58.421Z,55.20
2018-07-12T07:04:28.778Z,54.70
2018-07-12T07:06:57.151Z,55.00
2018-07-12T07:09:25.462Z,55.00
2018-07-12T07:11:53.831Z,55.20
2018-07-12T07:14:22.126Z,55.00
2018-07-12T07:16:50.435Z,54.80
2018-07-12T07:19:18.779Z,55.00
2018-07-12T07:21:47.107Z,54.90
2018-07-12T07:24:15.428Z,55.10
2018-07-12T07:26:43.727Z,55.10
2018-07-12T07:29:12.057Z,55.00
2018-07-12T07:31:40.458Z,55.40
2018-07-12T07:34:08.812Z,55.20
2018-07-12T07:36:37.220Z,55.00
2018-07-12T07:39:07.359Z,55.10
2018-07-12T07:41:35.663Z,55.10
2018-07-12T07:44:04.207Z,54.40
2018-07-12T07:46:32.588Z,55.10
2018-07-12T07:49:00.931Z,55.10
2018-07-12T07:51:29.315Z,55.20
2018-07-12T07:53:57.715Z,55.30
2018-07-12T07:56:26.075Z,55.20
2018-07-12T07:58:54.390Z,55.20
2018-07-12T08:01:22.727Z,55.20
2018-07-12T08:03:51.108Z,55.20
2018-07-12T08:06:19.415Z,55.30
2018-07-12T08:08:47.751Z,55.30
2018-07-12T08:11:16.060Z,55.20
2018-07-12T08:13:44.544Z,55.20
2018-07-12T08:16:12.899Z,55.20
2018-07-12T08:18:41.275Z,55.20
2018-07-12T08:21:12.362Z,54.90
2018-07-12T08:23:40.926Z,55.20
2018-07-12T08:26:09.446Z,55.20
2018-07-12T08:28:37.762Z,55.30
2018-07-12T08:31:06.206Z,55.30
2018-07-12T08:33:34.576Z,55.00
2018-07-12T08:36:02.922Z,55.10
2018-07-12T08:38:31.266Z,54.90
2018-07-12T08:40:59.698Z,54.80
2018-07-12T08:43:28.051Z,54.80
2018-07-12T08:45:56.400Z,54.60
2018-07-12T08:48:24.762Z,54.40
2018-07-12T08:50:53.123Z,54.30
2018-07-12T08:53:21.487Z,54.40
2018-07-12T08:55:49.833Z,54.30
2018-07-12T08:58:18.219Z,54.30
2018-07-12T09:00:46.651Z,54.10
2018-07-12T09:03:15.031Z,54.00
2018-07-12T09:05:43.353Z,54.00
2018-07-12T09:08:11.749Z,53.90
2018-07-12T09:10:40.082Z,53.90
2018-07-12T09:13:08.423Z,53.80
2018-07-12T09:15:36.847Z,53.90
2018-07-12T09:18:05.172Z,53.70
2018-07-12T09:20:33.503Z,53.80
2018-07-12T09:23:01.875Z,54.50
2018-07-12T09:25:30.284Z,53.70
2018-07-12T09:27:58.534Z,53.60
2018-07-12T09:30:26.835Z,53.50
2018-07-12T09:32:55.235Z,53.40
2018-07-12T09:35:23.547Z,53.40
2018-07-12T09:37:52.151Z,53.40
2018-07-12T09:40:20.474Z,53.10
2018-07-12T09:42:48.838Z,53.10
2018-07-12T09:45:17.183Z,53.30
2018-07-12T09:47:45.499Z,52.90
2018-07-12T09:50:13.850Z,52.90
2018-07-12T09:52:42.175Z,53.00
2018-07-12T09:55:10.539Z,52.80
2018-07-12T09:57:50.396Z,52.80
2018-07-12T10:00:21.959Z,52.80
2018-07-12T10:02:55.875Z,52.80
2018-07-12T10:05:29.804Z,52.70
2018-07-12T10:08:03.595Z,52.80
2018-07-12T10:10:36.243Z,52.70
2018-07-12T10:13:09.873Z,52.50
2018-07-12T10:15:43.195Z,52.60
2018-07-12T10:18:16.862Z,52.40
2018-07-12T10:20:45.183Z,52.40
2018-07-12T10:23:13.490Z,52.30
2018-07-12T10:25:41.822Z,52.20
2018-07-12T10:28:10.136Z,52.20
2018-07-12T10:30:38.442Z,52.20
2018-07-12T10:33:06.795Z,52.10
2018-07-12T10:35:35.154Z,52.10
2018-07-12T10:38:03.487Z,52.80
2018-07-12T10:40:31.811Z,52.10
2018-07-12T10:43:00.138Z,52.10
2018-07-12T10:45:28.442Z,52.10
2018-07-12T10:47:56.777Z,52.40
2018-07-12T10:50:25.138Z,52.40
2018-07-12T10:52:53.641Z,52.50
2018-07-12T10:55:21.967Z,52.40
2018-07-12T10:57:50.288Z,52.40
2018-07-12T11:00:18.613Z,52.40
2018-07-12T11:02:47.151Z,52.40
2018-07-12T11:05:15.478Z,52.40
2018-07-12T11:07:43.795Z,52.30
2018-07-12T11:10:12.128Z,52.40
2018-07-12T11:12:40.458Z,52.40
2018-07-12T11:15:08.788Z,52.40
2018-07-12T11:17:37.170Z,52.40
2018-07-12T11:20:05.609Z,52.30
2018-07-12T11:22:33.943Z,52.30
2018-07-12T11:25:02.296Z,52.30
2018-07-12T11:27:30.627Z,52.50
2018-07-12T11:29:59.505Z,52.40
2018-07-12T11:32:27.834Z,52.60
2018-07-12T11:34:56.178Z,52.40
2018-07-12T11:37:27.687Z,52.30
2018-07-12T11:39:56.000Z,52.50
2018-07-12T11:42:24.321Z,52.70
2018-07-12T11:44:52.655Z,52.60
2018-07-12T11:47:21.146Z,53.20
2018-07-12T11:49:49.479Z,53.10
2018-07-12T11:52:17.856Z,52.70
2018-07-12T11:54:46.487Z,53.30
2018-07-12T11:57:14.848Z,53.00
2018-07-12T11:59:43.195Z,52.90
2018-07-12T12:02:11.860Z,52.90
2018-07-12T12:04:40.247Z,53.00
2018-07-12T12:07:08.794Z,52.90
2018-07-12T12:09:37.111Z,53.50
2018-07-12T12:12:05.760Z,53.50
2018-07-12T12:17:02.622Z,53.90
2018-07-12T12:19:31.050Z,54.10
2018-07-12T12:21:59.978Z,54.40
2018-07-12T12:24:28.358Z,54.20
2018-07-12T12:26:56.676Z,54.10
2018-07-12T12:29:25.020Z,54.20
2018-07-12T12:34:21.555Z,54.30
2018-07-12T12:36:49.895Z,54.10
2018-07-12T12:39:18.235Z,53.90
2018-07-12T12:44:14.733Z,54.20
2018-07-12T12:46:43.060Z,57.50
2018-07-12T12:51:39.852Z,54.40
2018-07-12T12:54:08.183Z,54.20
2018-07-12T12:56:36.508Z,54.70
2018-07-12T12:59:04.843Z,54.50
2018-07-12T13:01:33.219Z,54.50
2018-07-12T13:04:01.532Z,54.00
2018-07-12T13:06:29.853Z,54.30
2018-07-12T13:08:58.202Z,54.30
2018-07-12T13:11:26.514Z,54.20
2018-07-12T13:13:54.862Z,54.00
2018-07-12T13:16:23.203Z,54.30
2018-07-12T13:18:51.531Z,53.70
2018-07-12T13:21:19.898Z,53.60
2018-07-12T13:23:48.220Z,53.80
2018-07-12T13:26:16.638Z,53.20
2018-07-12T13:28:45.013Z,53.20
2018-07-12T13:31:13.327Z,53.50
2018-07-12T13:33:41.652Z,53.30
2018-07-12T13:36:09.966Z,53.70
2018-07-12T13:38:38.354Z,53.70
2018-07-12T13:41:06.971Z,53.90
2018-07-12T13:43:35.313Z,54.20
2018-07-12T13:46:03.803Z,54.40
2018-07-12T13:48:32.148Z,53.80
2018-07-12T13:51:00.523Z,54.20
2018-07-12T13:53:28.984Z,53.90
2018-07-12T13:58:25.527Z,55.00
2018-07-12T14:00:53.840Z,55.20
2018-07-12T14:03:22.192Z,55.60
2018-07-12T14:05:50.498Z,55.70
2018-07-12T14:08:18.809Z,55.70
2018-07-12T14:10:47.135Z,55.70
2018-07-12T14:13:15.434Z,55.40
2018-07-12T14:15:43.779Z,55.50
2018-07-12T14:18:12.111Z,55.50
2018-07-12T14:20:40.467Z,55.60
2018-07-12T14:23:08.871Z,55.20
2018-07-12T14:25:37.226Z,55.20
2018-07-12T14:28:05.622Z,55.50
2018-07-12T14:30:33.933Z,55.70
2018-07-12T14:33:02.243Z,55.50
2018-07-12T14:35:30.535Z,55.60
2018-07-12T14:37:59.126Z,55.50
2018-07-12T14:40:27.457Z,55.30
2018-07-12T14:42:55.784Z,55.50
2018-07-12T14:45:24.144Z,55.10
2018-07-12T14:50:20.584Z,55.10
2018-07-12T14:55:17.044Z,54.70
2018-07-12T14:57:45.544Z,54.50
2018-07-12T15:00:13.872Z,54.40
2018-07-12T15:02:42.250Z,54.30
2018-07-12T15:05:10.494Z,54.10
2018-07-12T15:07:38.807Z,54.10
2018-07-12T15:10:07.161Z,53.90
2018-07-12T15:12:35.459Z,54.20
2018-07-12T15:15:03.754Z,53.90
2018-07-12T15:17:32.207Z,53.80
2018-07-12T15:20:00.552Z,53.80
2018-07-12T15:22:28.909Z,54.00
2018-07-12T15:24:57.202Z,54.00
2018-07-12T15:27:25.531Z,53.70
2018-07-12T15:32:21.939Z,53.60
2018-07-12T15:34:50.413Z,53.70
2018-07-12T15:37:18.723Z,53.70
2018-07-12T15:39:47.058Z,53.80
2018-07-12T15:42:15.440Z,54.80
2018-07-12T15:44:43.883Z,55.20
2018-07-12T15:47:12.231Z,55.00
2018-07-12T15:49:40.571Z,54.90
2018-07-12T15:52:08.991Z,55.50
2018-07-12T15:54:37.318Z,55.50
2018-07-12T15:57:05.877Z,55.40
2018-07-12T15:59:34.232Z,55.10
2018-07-12T16:02:02.590Z,55.10
2018-07-12T16:04:30.970Z,56.00
2018-07-12T16:06:59.344Z,55.60
2018-07-12T16:09:27.675Z,55.50
2018-07-12T16:11:56.013Z,55.30
2018-07-12T16:14:24.358Z,55.00
2018-07-12T16:16:52.786Z,54.70
2018-07-12T16:19:21.173Z,55.00
2018-07-12T16:21:49.528Z,54.60
2018-07-12T16:24:17.837Z,55.10
2018-07-12T16:26:46.271Z,54.70
2018-07-12T16:29:14.627Z,54.40
2018-07-12T16:31:42.935Z,54.80
2018-07-12T16:34:11.334Z,56.10
2018-07-12T16:36:39.692Z,57.30
2018-07-12T16:41:36.456Z,56.80
2018-07-12T16:44:05.208Z,56.00
2018-07-12T16:46:33.541Z,56.10
2018-07-12T16:49:01.915Z,56.00
2018-07-12T16:51:30.255Z,55.90
2018-07-12T16:53:58.562Z,56.10
2018-07-12T16:56:26.906Z,56.20
2018-07-12T16:58:55.264Z,56.20
2018-07-12T17:01:23.589Z,55.90
2018-07-12T17:03:51.958Z,55.70
2018-07-12T17:06:20.395Z,55.20
2018-07-12T17:08:48.827Z,55.10
2018-07-12T17:11:17.174Z,55.00
2018-07-12T17:13:45.512Z,53.80
2018-07-12T17:16:13.803Z,52.80
2018-07-12T17:18:42.154Z,53.10
2018-07-12T17:21:10.465Z,52.70
2018-07-12T17:23:38.799Z,52.60
2018-07-12T17:26:07.147Z,52.80
2018-07-12T17:28:35.499Z,52.60
2018-07-12T17:31:03.810Z,53.00
2018-07-12T17:33:32.226Z,52.80
2018-07-12T17:36:00.463Z,52.80
2018-07-12T17:38:28.782Z,52.70
2018-07-12T17:40:57.264Z,52.90
2018-07-12T17:43:25.581Z,52.90
2018-07-12T17:45:53.883Z,52.50
2018-07-12T17:48:22.199Z,52.60
2018-07-12T17:50:50.570Z,52.20
2018-07-12T17:53:18.881Z,52.50
2018-07-12T17:55:47.195Z,52.50
2018-07-12T17:58:15.550Z,52.60
2018-07-12T18:00:44.265Z,52.60
2018-07-12T18:03:12.960Z,52.80
2018-07-12T18:05:41.287Z,53.00
2018-07-12T18:08:10.010Z,53.20
2018-07-12T18:10:38.349Z,53.20
2018-07-12T18:13:06.683Z,53.20
2018-07-12T18:15:35.005Z,53.30
2018-07-12T18:18:03.540Z,53.30
2018-07-12T18:20:31.928Z,53.20
2018-07-12T18:23:00.230Z,53.40
2018-07-12T18:25:28.531Z,53.30
2018-07-12T18:27:56.860Z,53.10
2018-07-12T18:30:25.491Z,53.40
2018-07-12T18:32:54.082Z,53.60
2018-07-12T18:35:22.614Z,53.40
2018-07-12T18:37:50.939Z,53.50
2018-07-12T18:40:20.041Z,53.50
2018-07-12T18:42:48.441Z,53.40
2018-07-12T18:45:16.988Z,53.40
2018-07-12T18:47:45.758Z,53.30
2018-07-12T18:52:42.451Z,52.90
2018-07-12T18:55:10.766Z,53.30
2018-07-12T18:57:39.107Z,53.60
2018-07-12T19:00:07.422Z,53.40
2018-07-12T19:02:36.904Z,53.50
2018-07-12T19:07:33.282Z,53.60
2018-07-12T19:10:01.631Z,53.90
2018-07-12T19:12:29.963Z,54.00
2018-07-12T19:17:26.431Z,54.00
2018-07-12T19:19:54.782Z,54.20
2018-07-12T19:22:23.742Z,54.20
2018-07-12T19:24:52.861Z,54.20
2018-07-12T19:27:21.231Z,54.20
2018-07-12T19:29:49.574Z,54.30
2018-07-12T19:32:17.986Z,54.20
2018-07-12T19:34:46.974Z,54.30
2018-07-12T19:37:15.718Z,53.90
2018-07-12T19:39:44.217Z,54.00
2018-07-12T19:42:12.554Z,53.80
2018-07-12T19:44:41.207Z,53.90
2018-07-12T19:47:09.933Z,54.00
2018-07-12T19:49:38.270Z,54.00
2018-07-12T19:52:06.601Z,54.20
2018-07-12T19:54:35.089Z,54.40
2018-07-12T19:57:03.451Z,54.40
2018-07-12T19:59:31.846Z,54.30
2018-07-12T20:04:28.269Z,53.80
2018-07-12T20:06:56.672Z,53.80
2018-07-12T20:09:25.023Z,53.60
2018-07-12T20:11:53.352Z,53.70
2018-07-12T20:14:22.017Z,53.60
2018-07-12T20:16:50.946Z,53.60
2018-07-12T20:19:19.731Z,53.70
2018-07-12T20:21:49.048Z,53.80
2018-07-12T20:24:17.679Z,53.60
2018-07-12T20:26:46.696Z,53.50
2018-07-12T20:29:15.033Z,53.60
2018-07-12T20:31:43.381Z,53.60
2018-07-12T20:34:11.818Z,54.00
2018-07-12T20:39:08.902Z,53.90
2018-07-12T20:41:38.019Z,54.00
2018-07-12T20:44:06.590Z,53.90
2018-07-12T20:46:35.303Z,53.90
2018-07-12T20:49:03.639Z,54.00
2018-07-12T20:51:32.105Z,53.90
2018-07-12T20:54:00.690Z,53.90
2018-07-12T20:56:29.074Z,53.90
2018-07-12T20:58:57.607Z,53.90
2018-07-12T21:01:26.201Z,54.00
2018-07-12T21:03:54.553Z,54.20
2018-07-12T21:06:22.964Z,54.20
2018-07-12T21:08:51.464Z,54.40
2018-07-12T21:11:20.259Z,54.30
2018-07-12T21:13:48.896Z,54.10
2018-07-12T21:16:17.419Z,54.40
2018-07-12T21:18:46.178Z,54.50
2018-07-12T21:21:14.505Z,54.20
2018-07-12T21:23:42.983Z,53.90
2018-07-12T21:26:11.372Z,53.90
2018-07-12T21:28:39.759Z,53.90
2018-07-12T21:31:08.112Z,53.80
2018-07-12T21:33:36.663Z,54.50
2018-07-12T21:36:05.204Z,53.80
2018-07-12T21:38:33.596Z,54.10
2018-07-12T21:43:30.289Z,53.80
2018-07-12T21:45:58.691Z,53.70
2018-07-12T21:48:27.130Z,54.00
2018-07-12T21:50:55.552Z,53.90
2018-07-12T21:53:24.246Z,54.10
2018-07-12T21:55:52.620Z,54.00
2018-07-12T21:58:20.936Z,54.00
2018-07-12T22:00:49.286Z,54.20
2018-07-12T22:05:45.727Z,54.00
2018-07-12T22:08:17.264Z,54.10
2018-07-12T22:10:47.427Z,53.90
2018-07-12T22:13:16.423Z,53.90
2018-07-12T22:15:44.902Z,53.80
2018-07-12T22:18:13.200Z,54.00
2018-07-12T22:20:41.535Z,54.00
2018-07-12T22:23:09.855Z,54.00
2018-07-12T22:25:38.219Z,54.00
2018-07-12T22:30:34.838Z,54.10
2018-07-12T22:33:03.780Z,54.10
2018-07-12T22:35:32.309Z,54.00
2018-07-12T22:38:01.744Z,54.10
2018-07-12T22:40:30.335Z,54.20
2018-07-12T22:42:58.905Z,54.10
2018-07-12T22:45:27.277Z,54.10
2018-07-12T22:47:56.212Z,54.10
2018-07-12T22:50:24.646Z,53.90
2018-07-12T22:52:53.178Z,54.00
2018-07-12T22:55:21.732Z,53.90
2018-07-12T22:57:50.130Z,54.00
2018-07-12T23:00:18.504Z,54.00
2018-07-12T23:02:46.835Z,54.10
2018-07-12T23:05:15.188Z,54.10
2018-07-12T23:07:43.592Z,54.00
2018-07-12T23:10:11.931Z,54.10
2018-07-12T23:12:40.258Z,54.10
2018-07-12T23:15:08.628Z,54.10
2018-07-12T23:17:36.962Z,54.10
2018-07-12T23:20:05.307Z,54.10
2018-07-12T23:22:33.655Z,54.20
2018-07-12T23:25:02.049Z,54.20
2018-07-12T23:27:30.429Z,54.20
2018-07-12T23:29:58.771Z,54.20
2018-07-12T23:32:27.078Z,54.20
2018-07-12T23:34:55.441Z,54.30
2018-07-12T23:37:23.787Z,54.30
2018-07-12T23:39:52.123Z,54.40
2018-07-12T23:42:20.467Z,54.40
2018-07-12T23:44:48.808Z,54.50
2018-07-12T23:47:17.160Z,54.50
2018-07-12T23:49:45.514Z,54.50
2018-07-12T23:52:13.867Z,54.50
2018-07-12T23:54:42.263Z,54.60
2018-07-12T23:57:10.628Z,54.50
2018-07-12T23:59:38.948Z,54.70
